createdAt,value
2023-04-19T00:02:22.530Z,56.27
2023-04-19T00:04:49.318Z,56.21
2023-04-19T00:07:17.086Z,56.20
2023-04-19T00:09:43.685Z,56.36
2023-04-19T00:12:10.247Z,56.56
2023-04-19T00:14:36.768Z,56.57
2023-04-19T00:17:03.725Z,56.72
2023-04-19T00:19:30.528Z,56.65
2023-04-19T00:21:57.078Z,56.75
2023-04-19T00:24:23.585Z,56.77
2023-04-19T00:26:50.155Z,56.79
2023-04-19T00:29:16.761Z,57.03
2023-04-19T00:31:43.360Z,56.85
2023-04-19T00:34:09.967Z,56.93
2023-04-19T00:36:37.679Z,57.01
2023-04-19T00:39:04.302Z,57.07
2023-04-19T00:41:30.936Z,57.09
2023-04-19T00:43:57.655Z,57.13
2023-04-19T00:46:25.205Z,57.30
2023-04-19T00:48:52.193Z,57.32
2023-04-19T00:51:19.707Z,57.24
2023-04-19T00:53:46.648Z,57.29
2023-04-19T00:56:14.750Z,57.46
2023-04-19T00:58:41.571Z,57.49
2023-04-19T01:01:09.229Z,57.49
2023-04-19T01:03:36.788Z,57.48
2023-04-19T01:06:03.782Z,57.59
2023-04-19T01:08:30.786Z,57.63
2023-04-19T01:10:57.345Z,57.62
2023-04-19T01:13:23.916Z,57.68
2023-04-19T01:15:51.680Z,57.72
2023-04-19T01:18:20.646Z,57.75
2023-04-19T01:20:48.381Z,57.85
2023-04-19T01:23:15.343Z,57.92
2023-04-19T01:25:41.888Z,58.00
2023-04-19T01:28:08.451Z,57.99
2023-04-19T01:30:35.535Z,58.03
2023-04-19T01:33:02.136Z,58.08
2023-04-19T01:35:29.603Z,58.13
2023-04-19T01:37:56.224Z,58.18
2023-04-19T01:40:25.634Z,58.18
2023-04-19T01:42:52.809Z,58.31
2023-04-19T01:45:19.530Z,58.33
2023-04-19T01:47:46.114Z,58.31
2023-04-19T01:50:12.809Z,58.40
2023-04-19T01:52:39.552Z,58.43
2023-04-19T01:55:06.320Z,58.47
2023-04-19T01:57:32.888Z,58.59
2023-04-19T01:59:59.501Z,58.57
2023-04-19T02:02:26.457Z,58.54
2023-04-19T02:04:53.796Z,58.56
2023-04-19T02:07:20.388Z,58.72
2023-04-19T02:09:46.980Z,58.69
2023-04-19T02:12:13.572Z,58.98
2023-04-19T02:14:40.112Z,59.03
2023-04-19T02:17:09.218Z,59.15
2023-04-19T02:19:36.297Z,59.13
2023-04-19T02:22:03.065Z,59.26
2023-04-19T02:24:29.593Z,59.31
2023-04-19T02:26:56.886Z,59.32
2023-04-19T02:29:23.778Z,59.36
2023-04-19T02:31:50.668Z,59.28
2023-04-19T02:34:17.781Z,59.35
2023-04-19T02:36:44.594Z,59.44
2023-04-19T02:39:11.211Z,59.62
2023-04-19T02:41:38.037Z,59.63
2023-04-19T02:44:05.042Z,59.73
2023-04-19T02:46:31.766Z,59.73
2023-04-19T02:49:01.116Z,59.77
2023-04-19T02:51:27.707Z,59.75
2023-04-19T02:53:54.291Z,59.75
2023-04-19T02:56:20.952Z,59.90
2023-04-19T02:58:47.616Z,60.04
2023-04-19T03:01:14.268Z,60.13
2023-04-19T03:03:41.215Z,60.07
2023-04-19T03:06:09.055Z,60.07
2023-04-19T03:08:36.384Z,59.97
2023-04-19T03:11:03.029Z,59.98
2023-04-19T03:13:30.423Z,60.08
2023-04-19T03:15:56.969Z,60.16
2023-04-19T03:18:23.539Z,60.25
2023-04-19T03:20:50.939Z,60.29
2023-04-19T03:23:17.486Z,60.33
2023-04-19T03:25:44.553Z,60.23
2023-04-19T03:28:18.552Z,60.29
2023-04-19T03:31:10.909Z,60.36
2023-04-19T03:33:38.346Z,60.35
2023-04-19T03:36:05.788Z,60.41
2023-04-19T03:38:32.500Z,60.50
2023-04-19T03:40:59.795Z,60.59
2023-04-19T03:43:27.959Z,60.60
2023-04-19T03:45:54.519Z,60.61
2023-04-19T03:48:21.487Z,60.72
2023-04-19T03:50:48.064Z,60.73
2023-04-19T03:53:16.105Z,60.83
2023-04-19T03:55:42.638Z,60.96
2023-04-19T03:58:10.044Z,60.92
2023-04-19T04:00:44.381Z,60.99
2023-04-19T04:03:11.175Z,60.96
2023-04-19T04:05:38.888Z,61.06
2023-04-19T04:08:05.642Z,61.12
2023-04-19T04:10:32.247Z,61.05
2023-04-19T04:12:58.931Z,61.13
2023-04-19T04:15:33.364Z,61.19
2023-04-19T04:18:00.353Z,61.24
2023-04-19T04:20:27.040Z,61.19
2023-04-19T04:22:56.988Z,61.35
2023-04-19T04:25:24.253Z,61.31
2023-04-19T04:27:52.309Z,61.33
2023-04-19T04:30:19.962Z,61.49
2023-04-19T04:32:47.621Z,61.56
2023-04-19T04:35:14.868Z,61.58
2023-04-19T04:37:44.818Z,61.59
2023-04-19T04:40:12.113Z,61.56
2023-04-19T04:42:38.820Z,61.56
2023-04-19T04:45:06.137Z,61.63
2023-04-19T04:47:34.020Z,61.72
2023-04-19T04:50:03.575Z,61.75
2023-04-19T04:52:30.550Z,61.93
2023-04-19T04:55:17.432Z,61.92
2023-04-19T04:57:44.397Z,61.91
2023-04-19T05:00:23.386Z,62.02
2023-04-19T05:02:55.932Z,61.85
2023-04-19T05:05:22.770Z,61.88
2023-04-19T05:07:49.392Z,61.89
2023-04-19T05:10:16.571Z,61.96
2023-04-19T05:12:44.904Z,62.02
2023-04-19T05:15:12.131Z,62.02
2023-04-19T05:17:43.198Z,62.02
2023-04-19T05:20:10.479Z,62.13
2023-04-19T05:22:37.717Z,61.97
2023-04-19T05:25:05.974Z,62.10
2023-04-19T05:27:32.637Z,62.07
2023-04-19T05:29:59.201Z,62.08
2023-04-19T05:32:27.530Z,62.16
2023-04-19T05:34:56.395Z,62.14
2023-04-19T05:37:24.479Z,62.14
2023-04-19T05:39:51.398Z,62.21
2023-04-19T05:42:18.689Z,62.11
2023-04-19T05:44:45.286Z,62.08
2023-04-19T05:47:12.290Z,62.05
2023-04-19T05:50:03.115Z,62.02
2023-04-19T05:52:33.052Z,62.12
2023-04-19T05:55:01.431Z,62.19
2023-04-19T05:57:30.596Z,62.30
2023-04-19T05:59:57.732Z,62.26
2023-04-19T06:02:26.851Z,62.15
2023-04-19T06:04:53.692Z,62.22
2023-04-19T06:07:31.009Z,62.18
2023-04-19T06:10:02.237Z,62.33
2023-04-19T06:12:28.911Z,62.20
2023-04-19T06:14:55.604Z,62.18
2023-04-19T06:17:25.289Z,62.00
2023-04-19T06:19:53.191Z,62.07
2023-04-19T06:22:20.480Z,61.98
2023-04-19T06:24:47.689Z,61.89
2023-04-19T06:27:16.495Z,61.88
2023-04-19T06:29:43.009Z,61.86
2023-04-19T06:32:09.679Z,61.79
2023-04-19T06:34:36.414Z,61.88
2023-04-19T06:37:02.950Z,61.88
2023-04-19T06:39:29.490Z,61.91
2023-04-19T06:41:55.990Z,62.00
2023-04-19T06:44:22.507Z,61.89
2023-04-19T06:46:49.131Z,61.89
2023-04-19T06:49:15.682Z,61.99
2023-04-19T06:51:42.199Z,62.07
2023-04-19T06:54:08.751Z,61.94
2023-04-19T06:56:46.962Z,61.98
2023-04-19T06:59:20.599Z,62.10
2023-04-19T07:01:47.988Z,62.18
2023-04-19T07:04:15.517Z,62.14
2023-04-19T07:06:42.378Z,62.21
2023-04-19T07:09:08.903Z,62.19
2023-04-19T07:11:35.514Z,62.12
2023-04-19T07:14:02.159Z,62.20
2023-04-19T07:16:28.989Z,62.30
2023-04-19T07:18:55.916Z,62.09
2023-04-19T07:21:22.674Z,62.13
2023-04-19T07:23:49.239Z,62.35
2023-04-19T07:26:15.993Z,62.20
2023-04-19T07:28:42.615Z,62.15
2023-04-19T07:31:16.382Z,62.29
2023-04-19T07:33:43.921Z,62.20
2023-04-19T07:36:11.568Z,62.27
2023-04-19T07:38:38.235Z,62.27
2023-04-19T07:41:05.509Z,62.44
2023-04-19T07:43:32.030Z,62.31
2023-04-19T07:45:58.701Z,62.23
2023-04-19T07:48:25.296Z,62.32
2023-04-19T07:50:51.889Z,62.37
2023-04-19T07:53:18.830Z,62.29
2023-04-19T07:55:45.930Z,62.34
2023-04-19T07:58:12.485Z,62.22
2023-04-19T08:00:39.309Z,62.12
2023-04-19T08:03:06.204Z,62.23
2023-04-19T08:05:33.061Z,62.13
2023-04-19T08:07:59.923Z,62.07
2023-04-19T08:10:28.705Z,62.04
2023-04-19T08:13:05.074Z,62.24
2023-04-19T08:18:05.047Z,62.37
2023-04-19T08:20:32.567Z,62.20
2023-04-19T08:23:04.527Z,62.52
2023-04-19T08:25:37.283Z,62.44
2023-04-19T08:28:04.721Z,62.28
2023-04-19T08:30:32.091Z,61.94
2023-04-19T08:32:58.812Z,62.17
2023-04-19T08:35:25.616Z,62.00
2023-04-19T08:37:52.230Z,62.24
2023-04-19T08:40:19.186Z,62.16
2023-04-19T08:42:45.948Z,62.08
2023-04-19T08:45:27.104Z,62.22
2023-04-19T08:48:01.197Z,61.77
2023-04-19T08:53:12.243Z,61.87
2023-04-19T08:56:07.848Z,61.89
2023-04-19T08:58:46.701Z,61.83
2023-04-19T09:01:31.063Z,61.94
2023-04-19T09:04:26.575Z,61.55
2023-04-19T09:06:52.483Z,61.14
2023-04-19T09:11:52.995Z,61.06
2023-04-19T09:14:20.949Z,60.82
2023-04-19T09:16:48.521Z,60.89
2023-04-19T09:19:24.304Z,60.89
2023-04-19T09:21:54.151Z,61.00
2023-04-19T09:25:02.508Z,61.11
2023-04-19T09:27:30.843Z,61.21
2023-04-19T09:29:59.878Z,61.20
2023-04-19T09:32:28.213Z,61.29
2023-04-19T09:35:00.297Z,61.39
2023-04-19T09:39:56.962Z,61.58
2023-04-19T09:42:42.212Z,61.84
2023-04-19T09:47:40.053Z,61.66
2023-04-19T09:50:21.713Z,61.63
2023-04-19T09:52:50.090Z,61.30
2023-04-19T09:57:48.308Z,61.13
2023-04-19T10:00:15.618Z,61.22
2023-04-19T10:02:42.567Z,61.40
2023-04-19T10:05:20.393Z,61.16
2023-04-19T10:07:49.597Z,61.17
2023-04-19T10:10:20.892Z,61.24
2023-04-19T10:15:25.123Z,61.18
2023-04-19T10:17:52.780Z,61.17
2023-04-19T10:20:25.045Z,61.11
2023-04-19T10:22:51.926Z,61.24
2023-04-19T10:25:18.778Z,61.20
2023-04-19T10:27:51.295Z,61.37
2023-04-19T10:30:18.631Z,61.53
2023-04-19T10:32:51.882Z,61.75
2023-04-19T10:35:32.188Z,61.67
2023-04-19T10:38:08.771Z,61.54
2023-04-19T10:40:57.692Z,61.70
2023-04-19T10:43:25.501Z,61.83
2023-04-19T10:45:52.835Z,61.71
2023-04-19T10:48:40.042Z,61.79
2023-04-19T10:51:19.484Z,62.07
2023-04-19T10:53:50.801Z,62.28
2023-04-19T10:56:21.582Z,62.16
2023-04-19T10:59:00.170Z,61.63
2023-04-19T11:01:38.211Z,60.84
2023-04-19T11:04:09.145Z,60.79
2023-04-19T11:06:38.255Z,60.75
2023-04-19T11:09:10.118Z,60.40
2023-04-19T11:11:36.829Z,60.14
2023-04-19T11:14:07.036Z,59.43
2023-04-19T11:16:45.073Z,59.04
2023-04-19T11:19:17.290Z,59.34
2023-04-19T11:21:48.595Z,59.33
2023-04-19T11:24:19.024Z,59.33
2023-04-19T11:26:47.053Z,59.70
2023-04-19T11:29:14.155Z,59.82
2023-04-19T11:31:46.385Z,59.76
2023-04-19T11:34:13.580Z,59.93
2023-04-19T11:36:51.547Z,59.87
2023-04-19T11:39:18.860Z,59.71
2023-04-19T11:41:47.176Z,59.73
2023-04-19T11:44:15.487Z,59.95
2023-04-19T11:46:42.957Z,59.91
2023-04-19T11:49:09.704Z,59.79
2023-04-19T11:51:42.165Z,59.57
2023-04-19T11:54:16.802Z,59.52
2023-04-19T11:57:04.570Z,59.29
2023-04-19T11:59:32.833Z,59.03
2023-04-19T12:02:07.719Z,58.87
2023-04-19T12:04:35.091Z,58.99
2023-04-19T12:07:03.565Z,59.03
2023-04-19T12:09:30.413Z,59.05
2023-04-19T12:11:58.632Z,59.30
2023-04-19T12:14:26.691Z,59.19
2023-04-19T12:17:11.471Z,59.32
2023-04-19T12:19:46.322Z,59.44
2023-04-19T12:22:16.013Z,59.58
2023-04-19T12:24:43.452Z,59.64
2023-04-19T12:27:11.341Z,59.56
2023-04-19T12:29:39.332Z,59.59
2023-04-19T12:32:06.566Z,59.52
2023-04-19T12:34:33.534Z,59.53
2023-04-19T12:37:01.572Z,59.45
2023-04-19T12:39:28.903Z,59.51
2023-04-19T12:41:56.256Z,59.38
2023-04-19T12:44:23.251Z,59.18
2023-04-19T12:46:50.028Z,59.23
2023-04-19T12:49:19.643Z,59.09
2023-04-19T12:51:47.809Z,58.75
2023-04-19T12:54:15.315Z,58.40
2023-04-19T12:56:43.733Z,57.97
2023-04-19T12:59:13.324Z,58.15
2023-04-19T13:01:43.689Z,58.37
2023-04-19T13:04:13.905Z,58.40
2023-04-19T13:06:43.644Z,58.49
2023-04-19T13:09:15.048Z,58.54
2023-04-19T13:11:44.651Z,58.43
2023-04-19T13:14:12.758Z,58.19
2023-04-19T13:16:42.287Z,58.33
2023-04-19T13:19:11.610Z,58.39
2023-04-19T13:21:41.178Z,58.53
2023-04-19T13:24:10.708Z,58.56
2023-04-19T13:26:39.579Z,58.69
2023-04-19T13:29:12.607Z,59.03
2023-04-19T13:31:43.894Z,59.50
2023-04-19T13:34:13.012Z,59.01
2023-04-19T13:36:43.007Z,58.49
2023-04-19T13:39:12.655Z,57.95
2023-04-19T13:41:42.240Z,57.73
2023-04-19T13:44:11.047Z,57.39
2023-04-19T13:46:40.735Z,57.39
2023-04-19T13:49:09.158Z,57.59
2023-04-19T13:51:48.979Z,57.89
2023-04-19T13:54:21.221Z,58.02
2023-04-19T14:04:19.550Z,56.53
2023-04-19T14:06:51.486Z,56.41
2023-04-19T14:09:18.153Z,56.12
2023-04-19T14:11:44.804Z,56.46
2023-04-19T14:14:11.594Z,56.30
2023-04-19T14:16:38.305Z,56.21
2023-04-19T14:19:05.112Z,56.27
2023-04-19T14:21:32.196Z,56.03
2023-04-19T14:23:59.789Z,55.89
2023-04-19T14:26:27.717Z,55.68
2023-04-19T14:28:54.598Z,55.43
2023-04-19T14:31:21.280Z,55.42
2023-04-19T14:33:47.903Z,55.19
2023-04-19T14:36:15.627Z,54.69
2023-04-19T14:38:42.221Z,54.46
2023-04-19T14:41:08.873Z,54.82
2023-04-19T14:43:35.447Z,54.87
2023-04-19T14:46:02.052Z,55.04
2023-04-19T14:48:28.769Z,55.34
2023-04-19T14:50:56.131Z,55.48
2023-04-19T14:53:22.918Z,55.50
2023-04-19T14:55:49.745Z,55.68
2023-04-19T14:58:16.471Z,55.86
2023-04-19T15:00:43.358Z,56.05
2023-04-19T15:03:10.245Z,56.19
2023-04-19T15:05:37.324Z,56.35
2023-04-19T15:08:04.242Z,56.38
2023-04-19T15:10:30.968Z,56.68
2023-04-19T15:12:58.059Z,56.56
2023-04-19T15:15:24.620Z,56.73
2023-04-19T15:17:51.489Z,56.88
2023-04-19T15:20:18.245Z,56.99
2023-04-19T15:22:45.055Z,56.84
2023-04-19T15:25:12.055Z,57.07
2023-04-19T15:27:38.810Z,57.20
2023-04-19T15:30:06.681Z,57.38
2023-04-19T15:32:36.839Z,57.36
2023-04-19T15:35:03.994Z,57.62
2023-04-19T15:37:30.701Z,57.68
2023-04-19T15:39:57.331Z,57.52
2023-04-19T15:42:23.933Z,57.66
2023-04-19T15:44:50.758Z,57.70
2023-04-19T15:47:17.559Z,57.68
2023-04-19T15:49:44.293Z,57.77
2023-04-19T15:52:10.880Z,57.85
2023-04-19T15:54:37.801Z,57.93
2023-04-19T15:57:04.549Z,57.83
2023-04-19T15:59:31.695Z,57.89
2023-04-19T16:01:58.502Z,58.08
2023-04-19T16:04:25.769Z,58.06
2023-04-19T16:06:52.758Z,58.09
2023-04-19T16:09:19.435Z,58.19
2023-04-19T16:11:46.112Z,58.27
2023-04-19T16:14:12.747Z,58.36
2023-04-19T16:16:39.479Z,58.32
2023-04-19T16:19:06.292Z,58.28
2023-04-19T16:21:33.023Z,58.18
2023-04-19T16:24:00.978Z,58.14
2023-04-19T16:26:27.665Z,58.18
2023-04-19T16:28:54.363Z,58.45
2023-04-19T16:31:21.344Z,58.43
2023-04-19T16:33:48.036Z,58.77
2023-04-19T16:36:14.572Z,58.60
2023-04-19T16:38:41.110Z,58.72
2023-04-19T16:41:07.917Z,58.82
2023-04-19T16:43:34.678Z,58.90
2023-04-19T16:46:01.886Z,58.91
2023-04-19T16:48:28.575Z,58.90
2023-04-19T16:50:55.211Z,59.08
2023-04-19T16:53:21.866Z,59.08
2023-04-19T16:55:48.556Z,58.96
2023-04-19T16:58:15.268Z,59.15
2023-04-19T17:00:41.848Z,59.12
2023-04-19T17:03:09.564Z,59.14
2023-04-19T17:05:36.560Z,59.17
2023-04-19T17:08:03.476Z,59.02
2023-04-19T17:10:30.244Z,59.00
2023-04-19T17:12:57.065Z,59.06
2023-04-19T17:15:23.883Z,59.20
2023-04-19T17:17:50.715Z,59.24
2023-04-19T17:20:17.532Z,59.31
2023-04-19T17:22:44.084Z,59.31
2023-04-19T17:25:10.938Z,59.52
2023-04-19T17:27:39.017Z,59.62
2023-04-19T17:30:07.312Z,59.47
2023-04-19T17:32:34.064Z,59.36
2023-04-19T17:35:05.043Z,59.56
2023-04-19T17:37:31.682Z,59.74
2023-04-19T17:39:58.431Z,59.65
2023-04-19T17:42:25.982Z,59.55
2023-04-19T17:44:53.180Z,59.81
2023-04-19T17:47:20.949Z,59.88
2023-04-19T17:49:48.079Z,59.91
2023-04-19T17:52:14.845Z,59.82
2023-04-19T17:54:41.465Z,59.83
2023-04-19T17:57:08.089Z,60.02
2023-04-19T17:59:34.941Z,59.94
2023-04-19T18:02:02.674Z,59.98
2023-04-19T18:04:30.982Z,60.17
2023-04-19T18:06:57.905Z,59.88
2023-04-19T18:09:24.732Z,59.79
2023-04-19T18:11:51.427Z,59.92
2023-04-19T18:14:22.593Z,59.75
2023-04-19T18:16:49.435Z,59.62
2023-04-19T18:19:16.886Z,59.64
2023-04-19T18:21:43.897Z,59.81
2023-04-19T18:24:10.497Z,59.69
2023-04-19T18:26:41.411Z,59.77
2023-04-19T18:29:08.155Z,59.70
2023-04-19T18:31:34.954Z,59.84
2023-04-19T18:34:02.434Z,60.02
2023-04-19T18:36:29.276Z,59.79
2023-04-19T18:38:56.319Z,59.91
2023-04-19T18:41:23.254Z,59.76
2023-04-19T18:44:08.206Z,59.82
2023-04-19T18:46:36.589Z,59.90
2023-04-19T18:49:03.365Z,59.97
2023-04-19T18:51:30.803Z,59.81
2023-04-19T18:53:57.471Z,59.79
2023-04-19T18:56:56.203Z,59.95
2023-04-19T18:59:11.326Z,60.11
2023-04-19T19:01:38.489Z,60.31
2023-04-19T19:06:35.083Z,59.99
2023-04-19T19:09:01.880Z,59.84
2023-04-19T19:11:54.241Z,59.55
2023-04-19T19:14:15.462Z,59.49
2023-04-19T19:16:51.996Z,59.52
2023-04-19T19:19:20.795Z,59.62
2023-04-19T19:21:47.513Z,59.44
2023-04-19T19:24:14.139Z,59.35
2023-04-19T19:26:40.737Z,59.45
2023-04-19T19:29:10.788Z,59.43
2023-04-19T19:31:37.453Z,59.63
2023-04-19T19:34:22.659Z,59.45
2023-04-19T19:36:51.344Z,59.37
2023-04-19T19:39:18.286Z,59.56
2023-04-19T19:44:15.412Z,59.77
2023-04-19T19:46:45.778Z,59.68
2023-04-19T19:49:15.123Z,59.61
2023-04-19T19:51:57.628Z,59.56
2023-04-19T19:54:26.709Z,59.68
2023-04-19T19:59:30.572Z,59.68
2023-04-19T20:02:02.413Z,59.61
2023-04-19T20:04:29.652Z,59.73
2023-04-19T20:07:28.779Z,59.83
2023-04-19T20:09:43.724Z,59.84
2023-04-19T20:12:13.449Z,59.94
2023-04-19T20:14:40.866Z,59.64
2023-04-19T20:17:07.725Z,59.70
2023-04-19T20:19:35.999Z,59.85
2023-04-19T20:22:03.081Z,59.90
2023-04-19T20:24:30.961Z,60.03
2023-04-19T20:26:57.900Z,60.02
2023-04-19T20:29:24.539Z,60.18
2023-04-19T20:31:51.422Z,60.04
2023-04-19T20:34:18.334Z,59.57
2023-04-19T20:36:48.228Z,59.80
2023-04-19T20:39:15.464Z,59.93
2023-04-19T20:41:43.911Z,59.69
2023-04-19T20:44:10.858Z,59.79
2023-04-19T20:46:37.713Z,60.05
2023-04-19T20:49:04.645Z,59.78
2023-04-19T20:51:31.809Z,59.90
2023-04-19T20:53:58.686Z,60.02
2023-04-19T20:56:25.608Z,59.95
2023-04-19T20:58:52.281Z,59.92
2023-04-19T21:01:20.312Z,59.89
2023-04-19T21:03:48.836Z,60.05
2023-04-19T21:06:15.766Z,60.24
2023-04-19T21:08:43.509Z,60.00
2023-04-19T21:11:10.157Z,60.26
2023-04-19T21:13:36.936Z,60.37
2023-04-19T21:16:03.699Z,60.31
2023-04-19T21:18:31.067Z,60.30
2023-04-19T21:20:58.394Z,60.34
2023-04-19T21:23:25.122Z,60.30
2023-04-19T21:25:52.235Z,60.45
2023-04-19T21:28:19.148Z,60.31
2023-04-19T21:30:46.090Z,60.53
2023-04-19T21:33:13.149Z,60.39
2023-04-19T21:35:39.758Z,60.27
2023-04-19T21:38:06.858Z,60.30
2023-04-19T21:40:33.685Z,60.59
2023-04-19T21:43:00.732Z,60.58
2023-04-19T21:45:27.567Z,60.59
2023-04-19T21:47:54.336Z,60.51
2023-04-19T21:50:21.016Z,60.53
2023-04-19T21:52:47.758Z,60.52
2023-04-19T21:55:14.513Z,60.43
2023-04-19T21:57:41.193Z,60.45
2023-04-19T22:00:11.419Z,60.52
2023-04-19T22:02:39.939Z,60.65
2023-04-19T22:05:08.701Z,60.61
2023-04-19T22:07:38.231Z,60.59
2023-04-19T22:10:06.247Z,60.61
2023-04-19T22:12:34.132Z,60.55
2023-04-19T22:15:02.335Z,60.73
2023-04-19T22:17:29.581Z,60.49
2023-04-19T22:19:56.296Z,60.62
2023-04-19T22:22:22.855Z,60.57
2023-04-19T22:24:57.503Z,60.60
2023-04-19T22:27:25.733Z,60.72
2023-04-19T22:29:53.167Z,60.71
2023-04-19T22:32:19.773Z,60.51
2023-04-19T22:34:46.687Z,60.65
2023-04-19T22:37:13.220Z,60.74
2023-04-19T22:39:39.777Z,60.57
2023-04-19T22:42:06.329Z,60.54
2023-04-19T22:44:32.889Z,60.61
2023-04-19T22:47:00.184Z,60.64
2023-04-19T22:49:27.042Z,60.71
2023-04-19T22:51:58.521Z,60.66
2023-04-19T22:54:26.073Z,60.86
2023-04-19T22:56:52.659Z,60.66
2023-04-19T22:59:19.522Z,60.61
2023-04-19T23:01:46.396Z,60.78
2023-04-19T23:04:16.490Z,60.56
2023-04-19T23:06:44.269Z,60.78
2023-04-19T23:09:13.654Z,60.65
2023-04-19T23:11:40.907Z,60.53
2023-04-19T23:14:10.608Z,60.61
2023-04-19T23:16:38.794Z,60.57
2023-04-19T23:19:07.479Z,60.66
2023-04-19T23:21:34.562Z,60.65
2023-04-19T23:24:01.302Z,60.85
2023-04-19T23:26:27.908Z,60.77
2023-04-19T23:28:54.527Z,60.79
2023-04-19T23:31:23.534Z,60.83
2023-04-19T23:33:50.530Z,60.95
2023-04-19T23:36:17.025Z,60.86
2023-04-19T23:38:43.625Z,60.89
2023-04-19T23:41:12.191Z,61.02
2023-04-19T23:43:38.777Z,61.13
2023-04-19T23:46:06.688Z,61.16
2023-04-19T23:48:33.524Z,61.19
2023-04-19T23:51:00.122Z,61.28
2023-04-19T23:53:26.660Z,61.23
2023-04-19T23:55:53.258Z,61.15
2023-04-19T23:58:19.809Z,61.21
